sensor_id;sensor_type;location;lat;lon;timestamp;P1;durP1;ratioP1;P2;durP2;ratioP2
32146;SDS011;32190;49.112;8.598;2022-10-24T00:00:58;1.00;;;0.70;;
32146;SDS011;32190;49.112;8.598;2022-10-24T00:06:48;1.38;;;0.55;;
32146;SDS011;32190;49.112;8.598;2022-10-24T00:12:39;0.50;;;0.50;;
32146;SDS011;32190;49.112;8.598;2022-10-24T00:18:30;1.65;;;0.75;;
32146;SDS011;32190;49.112;8.598;2022-10-24T00:24:20;2.65;;;0.60;;
32146;SDS011;32190;49.112;8.598;2022-10-24T00:30:11;1.75;;;0.98;;
32146;SDS011;32190;49.112;8.598;2022-10-24T00:36:02;1.05;;;0.80;;
32146;SDS011;32190;49.112;8.598;2022-10-24T00:41:53;1.30;;;0.60;;
32146;SDS011;32190;49.112;8.598;2022-10-24T00:47:45;3.85;;;0.65;;
32146;SDS011;32190;49.112;8.598;2022-10-24T00:53:37;3.75;;;0.88;;
32146;SDS011;32190;49.112;8.598;2022-10-24T00:59:34;0.65;;;0.60;;
32146;SDS011;32190;49.112;8.598;2022-10-24T01:05:29;1.80;;;0.68;;
32146;SDS011;32190;49.112;8.598;2022-10-24T01:17:25;4.25;;;0.70;;
32146;SDS011;32190;49.112;8.598;2022-10-24T01:41:32;1.48;;;0.82;;
32146;SDS011;32190;49.112;8.598;2022-10-24T01:47:26;0.77;;;0.50;;
32146;SDS011;32190;49.112;8.598;2022-10-24T01:53:22;1.40;;;1.10;;
32146;SDS011;32190;49.112;8.598;2022-10-24T02:05:19;0.47;;;0.43;;
32146;SDS011;32190;49.112;8.598;2022-10-24T02:11:12;0.80;;;0.55;;
32146;SDS011;32190;49.112;8.598;2022-10-24T02:17:03;0.40;;;0.40;;
32146;SDS011;32190;49.112;8.598;2022-10-24T02:29:13;0.50;;;0.50;;
32146;SDS011;32190;49.112;8.598;2022-10-24T02:35:11;2.28;;;0.60;;
32146;SDS011;32190;49.112;8.598;2022-10-24T02:41:06;0.75;;;0.52;;
32146;SDS011;32190;49.112;8.598;2022-10-24T02:47:00;0.45;;;0.45;;
32146;SDS011;32190;49.112;8.598;2022-10-24T02:52:54;1.25;;;0.50;;
32146;SDS011;32190;49.112;8.598;2022-10-24T02:58:44;2.00;;;0.60;;
32146;SDS011;32190;49.112;8.598;2022-10-24T03:04:35;0.63;;;0.55;;
32146;SDS011;32190;49.112;8.598;2022-10-24T03:10:26;2.17;;;0.50;;
32146;SDS011;32190;49.112;8.598;2022-10-24T03:16:16;4.28;;;1.10;;
32146;SDS011;32190;49.112;8.598;2022-10-24T03:22:07;2.05;;;0.60;;
32146;SDS011;32190;49.112;8.598;2022-10-24T03:27:57;0.75;;;0.50;;
32146;SDS011;32190;49.112;8.598;2022-10-24T03:33:48;1.65;;;1.13;;
32146;SDS011;32190;49.112;8.598;2022-10-24T03:39:39;1.48;;;0.40;;
32146;SDS011;32190;49.112;8.598;2022-10-24T03:45:29;0.80;;;0.40;;
32146;SDS011;32190;49.112;8.598;2022-10-24T03:51:20;0.40;;;0.40;;
32146;SDS011;32190;49.112;8.598;2022-10-24T03:57:10;1.42;;;0.40;;
32146;SDS011;32190;49.112;8.598;2022-10-24T04:03:01;2.15;;;0.50;;
32146;SDS011;32190;49.112;8.598;2022-10-24T04:08:52;2.42;;;0.40;;
32146;SDS011;32190;49.112;8.598;2022-10-24T04:14:42;0.32;;;0.32;;
32146;SDS011;32190;49.112;8.598;2022-10-24T04:20:33;2.88;;;0.43;;
32146;SDS011;32190;49.112;8.598;2022-10-24T04:26:24;1.42;;;0.50;;
32146;SDS011;32190;49.112;8.598;2022-10-24T04:32:14;4.20;;;0.82;;
32146;SDS011;32190;49.112;8.598;2022-10-24T04:38:05;0.82;;;0.80;;
32146;SDS011;32190;49.112;8.598;2022-10-24T04:43:55;0.35;;;0.35;;
32146;SDS011;32190;49.112;8.598;2022-10-24T04:49:46;2.22;;;0.40;;
32146;SDS011;32190;49.112;8.598;2022-10-24T04:55:37;0.75;;;0.60;;
32146;SDS011;32190;49.112;8.598;2022-10-24T05:01:28;1.42;;;0.63;;
32146;SDS011;32190;49.112;8.598;2022-10-24T05:07:18;3.05;;;0.95;;
32146;SDS011;32190;49.112;8.598;2022-10-24T05:13:10;1.58;;;0.88;;
32146;SDS011;32190;49.112;8.598;2022-10-24T05:19:01;1.23;;;0.80;;
32146;SDS011;32190;49.112;8.598;2022-10-24T05:24:51;1.70;;;0.60;;
32146;SDS011;32190;49.112;8.598;2022-10-24T05:30:49;1.63;;;0.73;;
32146;SDS011;32190;49.112;8.598;2022-10-24T05:36:43;0.75;;;0.47;;
32146;SDS011;32190;49.112;8.598;2022-10-24T05:42:33;1.42;;;0.45;;
32146;SDS011;32190;49.112;8.598;2022-10-24T05:48:25;1.65;;;0.45;;
32146;SDS011;32190;49.112;8.598;2022-10-24T05:54:16;1.35;;;0.70;;
32146;SDS011;32190;49.112;8.598;2022-10-24T06:00:07;3.67;;;0.70;;
32146;SDS011;32190;49.112;8.598;2022-10-24T06:06:02;2.95;;;0.57;;
32146;SDS011;32190;49.112;8.598;2022-10-24T06:11:54;3.70;;;0.80;;
32146;SDS011;32190;49.112;8.598;2022-10-24T06:17:48;2.35;;;0.70;;
32146;SDS011;32190;49.112;8.598;2022-10-24T06:23:39;2.22;;;0.80;;
32146;SDS011;32190;49.112;8.598;2022-10-24T06:29:32;0.82;;;0.50;;
32146;SDS011;32190;49.112;8.598;2022-10-24T06:41:42;2.33;;;0.75;;
32146;SDS011;32190;49.112;8.598;2022-10-24T06:47:33;1.48;;;0.90;;
32146;SDS011;32190;49.112;8.598;2022-10-24T06:53:24;1.45;;;0.85;;
32146;SDS011;32190;49.112;8.598;2022-10-24T06:59:15;1.85;;;0.82;;
32146;SDS011;32190;49.112;8.598;2022-10-24T07:05:06;2.70;;;1.20;;
32146;SDS011;32190;49.112;8.598;2022-10-24T07:11:01;1.13;;;0.98;;
32146;SDS011;32190;49.112;8.598;2022-10-24T07:16:52;1.38;;;0.70;;
32146;SDS011;32190;49.112;8.598;2022-10-24T07:22:42;2.13;;;1.15;;
32146;SDS011;32190;49.112;8.598;2022-10-24T07:28:34;1.45;;;0.70;;
32146;SDS011;32190;49.112;8.598;2022-10-24T07:34:26;2.13;;;0.90;;
32146;SDS011;32190;49.112;8.598;2022-10-24T07:40:16;0.60;;;0.60;;
32146;SDS011;32190;49.112;8.598;2022-10-24T07:46:08;1.55;;;0.52;;
32146;SDS011;32190;49.112;8.598;2022-10-24T07:52:00;2.13;;;1.20;;
32146;SDS011;32190;49.112;8.598;2022-10-24T07:57:50;1.13;;;0.70;;
32146;SDS011;32190;49.112;8.598;2022-10-24T08:03:41;1.63;;;0.50;;
32146;SDS011;32190;49.112;8.598;2022-10-24T08:09:36;1.85;;;0.80;;
32146;SDS011;32190;49.112;8.598;2022-10-24T08:15:27;5.93;;;1.40;;
32146;SDS011;32190;49.112;8.598;2022-10-24T08:21:18;1.40;;;0.60;;
32146;SDS011;32190;49.112;8.598;2022-10-24T08:27:10;0.70;;;0.50;;
32146;SDS011;32190;49.112;8.598;2022-10-24T08:33:01;2.40;;;0.77;;
32146;SDS011;32190;49.112;8.598;2022-10-24T08:38:51;1.95;;;0.82;;
32146;SDS011;32190;49.112;8.598;2022-10-24T08:44:43;1.02;;;0.50;;
32146;SDS011;32190;49.112;8.598;2022-10-24T08:50:36;2.42;;;1.05;;
32146;SDS011;32190;49.112;8.598;2022-10-24T08:56:34;0.55;;;0.50;;
32146;SDS011;32190;49.112;8.598;2022-10-24T09:02:25;1.10;;;0.50;;
32146;SDS011;32190;49.112;8.598;2022-10-24T09:08:31;1.85;;;0.60;;
32146;SDS011;32190;49.112;8.598;2022-10-24T09:14:35;1.85;;;0.70;;
32146;SDS011;32190;49.112;8.598;2022-10-24T09:20:30;2.35;;;0.65;;
32146;SDS011;32190;49.112;8.598;2022-10-24T09:26:27;0.50;;;0.47;;
32146;SDS011;32190;49.112;8.598;2022-10-24T09:32:22;1.10;;;0.50;;
32146;SDS011;32190;49.112;8.598;2022-10-24T09:44:29;1.00;;;0.68;;
32146;SDS011;32190;49.112;8.598;2022-10-24T09:50:22;1.23;;;0.70;;
32146;SDS011;32190;49.112;8.598;2022-10-24T09:56:13;1.67;;;0.60;;
32146;SDS011;32190;49.112;8.598;2022-10-24T10:02:07;0.90;;;0.60;;
32146;SDS011;32190;49.112;8.598;2022-10-24T10:14:30;0.35;;;0.32;;
32146;SDS011;32190;49.112;8.598;2022-10-24T10:20:22;0.70;;;0.70;;
32146;SDS011;32190;49.112;8.598;2022-10-24T10:32:16;2.42;;;0.93;;
32146;SDS011;32190;49.112;8.598;2022-10-24T10:50:44;0.63;;;0.63;;
32146;SDS011;32190;49.112;8.598;2022-10-24T10:56:48;0.55;;;0.55;;
32146;SDS011;32190;49.112;8.598;2022-10-24T11:15:30;1.13;;;0.60;;
32146;SDS011;32190;49.112;8.598;2022-10-24T11:21:24;0.63;;;0.52;;
32146;SDS011;32190;49.112;8.598;2022-10-24T11:27:23;2.85;;;0.98;;
32146;SDS011;32190;49.112;8.598;2022-10-24T11:33:26;2.15;;;0.70;;
32146;SDS011;32190;49.112;8.598;2022-10-24T11:58:17;3.03;;;0.90;;
32146;SDS011;32190;49.112;8.598;2022-10-24T12:04:22;1.15;;;0.70;;
32146;SDS011;32190;49.112;8.598;2022-10-24T12:10:33;0.70;;;0.70;;
32146;SDS011;32190;49.112;8.598;2022-10-24T12:23:02;3.25;;;0.75;;
32146;SDS011;32190;49.112;8.598;2022-10-24T12:34:58;1.92;;;1.00;;
32146;SDS011;32190;49.112;8.598;2022-10-24T12:40:54;1.23;;;0.90;;
32146;SDS011;32190;49.112;8.598;2022-10-24T12:58:30;1.20;;;0.93;;
32146;SDS011;32190;49.112;8.598;2022-10-24T13:22:32;4.28;;;0.95;;
32146;SDS011;32190;49.112;8.598;2022-10-24T13:40:31;3.38;;;1.27;;
32146;SDS011;32190;49.112;8.598;2022-10-24T13:46:27;4.90;;;1.23;;
32146;SDS011;32190;49.112;8.598;2022-10-24T13:58:24;3.55;;;1.08;;
32146;SDS011;32190;49.112;8.598;2022-10-24T14:04:15;2.13;;;1.30;;
32146;SDS011;32190;49.112;8.598;2022-10-24T14:10:07;0.90;;;0.90;;
32146;SDS011;32190;49.112;8.598;2022-10-24T14:16:03;1.17;;;0.90;;
32146;SDS011;32190;49.112;8.598;2022-10-24T14:21:56;2.75;;;0.73;;
32146;SDS011;32190;49.112;8.598;2022-10-24T14:27:46;1.85;;;1.10;;
32146;SDS011;32190;49.112;8.598;2022-10-24T14:33:41;2.20;;;1.08;;
32146;SDS011;32190;49.112;8.598;2022-10-24T14:39:40;2.45;;;0.98;;
32146;SDS011;32190;49.112;8.598;2022-10-24T14:45:31;3.13;;;1.00;;
32146;SDS011;32190;49.112;8.598;2022-10-24T14:51:28;0.70;;;0.70;;
32146;SDS011;32190;49.112;8.598;2022-10-24T14:57:26;0.80;;;0.77;;
32146;SDS011;32190;49.112;8.598;2022-10-24T15:03:17;2.53;;;1.00;;
32146;SDS011;32190;49.112;8.598;2022-10-24T15:21:12;1.95;;;0.80;;
32146;SDS011;32190;49.112;8.598;2022-10-24T15:27:09;0.82;;;0.65;;
32146;SDS011;32190;49.112;8.598;2022-10-24T15:33:02;0.87;;;0.70;;
32146;SDS011;32190;49.112;8.598;2022-10-24T15:38:58;0.95;;;0.80;;
32146;SDS011;32190;49.112;8.598;2022-10-24T15:44:54;0.90;;;0.73;;
32146;SDS011;32190;49.112;8.598;2022-10-24T15:50:44;0.95;;;0.73;;
32146;SDS011;32190;49.112;8.598;2022-10-24T15:56:35;0.95;;;0.50;;
32146;SDS011;32190;49.112;8.598;2022-10-24T16:02:26;0.50;;;0.50;;
32146;SDS011;32190;49.112;8.598;2022-10-24T16:08:17;0.47;;;0.47;;
32146;SDS011;32190;49.112;8.598;2022-10-24T16:14:12;0.70;;;0.60;;
32146;SDS011;32190;49.112;8.598;2022-10-24T16:20:04;1.17;;;0.57;;
32146;SDS011;32190;49.112;8.598;2022-10-24T16:25:55;1.08;;;0.50;;
32146;SDS011;32190;49.112;8.598;2022-10-24T16:31:45;0.80;;;0.73;;
32146;SDS011;32190;49.112;8.598;2022-10-24T16:37:38;0.82;;;0.70;;
32146;SDS011;32190;49.112;8.598;2022-10-24T16:43:29;0.95;;;0.75;;
32146;SDS011;32190;49.112;8.598;2022-10-24T16:49:19;1.20;;;1.10;;
32146;SDS011;32190;49.112;8.598;2022-10-24T16:55:11;1.63;;;0.77;;
32146;SDS011;32190;49.112;8.598;2022-10-24T17:01:03;1.00;;;0.90;;
32146;SDS011;32190;49.112;8.598;2022-10-24T17:07:01;0.57;;;0.40;;
32146;SDS011;32190;49.112;8.598;2022-10-24T17:12:53;0.60;;;0.60;;
32146;SDS011;32190;49.112;8.598;2022-10-24T17:18:45;1.75;;;0.73;;
32146;SDS011;32190;49.112;8.598;2022-10-24T17:24:36;3.35;;;0.70;;
32146;SDS011;32190;49.112;8.598;2022-10-24T17:30:27;1.30;;;0.70;;
32146;SDS011;32190;49.112;8.598;2022-10-24T17:36:20;1.35;;;0.63;;
32146;SDS011;32190;49.112;8.598;2022-10-24T17:42:15;1.13;;;0.85;;
32146;SDS011;32190;49.112;8.598;2022-10-24T17:48:06;1.52;;;0.70;;
32146;SDS011;32190;49.112;8.598;2022-10-24T17:53:57;2.15;;;0.90;;
32146;SDS011;32190;49.112;8.598;2022-10-24T17:59:48;0.75;;;0.70;;
32146;SDS011;32190;49.112;8.598;2022-10-24T18:05:39;1.40;;;0.60;;
32146;SDS011;32190;49.112;8.598;2022-10-24T18:11:29;1.92;;;0.93;;
32146;SDS011;32190;49.112;8.598;2022-10-24T18:17:20;0.73;;;0.73;;
32146;SDS011;32190;49.112;8.598;2022-10-24T18:23:10;1.13;;;0.93;;
32146;SDS011;32190;49.112;8.598;2022-10-24T18:29:01;0.50;;;0.50;;
32146;SDS011;32190;49.112;8.598;2022-10-24T18:34:52;0.65;;;0.35;;
32146;SDS011;32190;49.112;8.598;2022-10-24T18:40:43;2.45;;;1.40;;
32146;SDS011;32190;49.112;8.598;2022-10-24T18:46:33;3.40;;;0.75;;
32146;SDS011;32190;49.112;8.598;2022-10-24T18:52:31;0.50;;;0.50;;
32146;SDS011;32190;49.112;8.598;2022-10-24T18:58:34;0.68;;;0.47;;
32146;SDS011;32190;49.112;8.598;2022-10-24T19:04:25;0.73;;;0.30;;
32146;SDS011;32190;49.112;8.598;2022-10-24T19:10:20;0.30;;;0.30;;
32146;SDS011;32190;49.112;8.598;2022-10-24T19:16:17;0.20;;;0.20;;
32146;SDS011;32190;49.112;8.598;2022-10-24T19:22:11;0.30;;;0.30;;
32146;SDS011;32190;49.112;8.598;2022-10-24T19:28:01;0.50;;;0.40;;
32146;SDS011;32190;49.112;8.598;2022-10-24T19:33:52;0.38;;;0.20;;
32146;SDS011;32190;49.112;8.598;2022-10-24T19:39:43;0.35;;;0.20;;
32146;SDS011;32190;49.112;8.598;2022-10-24T19:45:33;0.30;;;0.30;;
32146;SDS011;32190;49.112;8.598;2022-10-24T19:51:24;0.57;;;0.20;;
32146;SDS011;32190;49.112;8.598;2022-10-24T19:57:15;0.25;;;0.25;;
32146;SDS011;32190;49.112;8.598;2022-10-24T20:03:05;0.75;;;0.60;;
32146;SDS011;32190;49.112;8.598;2022-10-24T20:08:56;1.60;;;0.45;;
32146;SDS011;32190;49.112;8.598;2022-10-24T20:14:47;0.75;;;0.60;;
32146;SDS011;32190;49.112;8.598;2022-10-24T20:20:37;0.52;;;0.20;;
32146;SDS011;32190;49.112;8.598;2022-10-24T20:26:28;0.20;;;0.20;;
32146;SDS011;32190;49.112;8.598;2022-10-24T20:32:18;1.35;;;0.60;;
32146;SDS011;32190;49.112;8.598;2022-10-24T20:38:09;1.48;;;0.30;;
32146;SDS011;32190;49.112;8.598;2022-10-24T20:44:00;0.17;;;0.17;;
32146;SDS011;32190;49.112;8.598;2022-10-24T20:49:51;0.43;;;0.20;;
32146;SDS011;32190;49.112;8.598;2022-10-24T20:55:41;0.20;;;0.20;;
32146;SDS011;32190;49.112;8.598;2022-10-24T21:01:32;1.05;;;0.20;;
32146;SDS011;32190;49.112;8.598;2022-10-24T21:07:22;0.20;;;0.20;;
32146;SDS011;32190;49.112;8.598;2022-10-24T21:13:13;1.10;;;0.25;;
32146;SDS011;32190;49.112;8.598;2022-10-24T21:19:04;0.30;;;0.20;;
32146;SDS011;32190;49.112;8.598;2022-10-24T21:24:54;0.17;;;0.17;;
32146;SDS011;32190;49.112;8.598;2022-10-24T21:30:45;0.20;;;0.20;;
32146;SDS011;32190;49.112;8.598;2022-10-24T21:36:35;0.20;;;0.20;;
32146;SDS011;32190;49.112;8.598;2022-10-24T21:42:28;0.30;;;0.20;;
32146;SDS011;32190;49.112;8.598;2022-10-24T21:48:19;0.20;;;0.20;;
32146;SDS011;32190;49.112;8.598;2022-10-24T21:54:17;0.22;;;0.20;;
32146;SDS011;32190;49.112;8.598;2022-10-24T22:00:09;0.10;;;0.10;;
32146;SDS011;32190;49.112;8.598;2022-10-24T22:06:00;0.22;;;0.22;;
32146;SDS011;32190;49.112;8.598;2022-10-24T22:11:51;0.22;;;0.20;;
32146;SDS011;32190;49.112;8.598;2022-10-24T22:17:44;0.10;;;0.10;;
32146;SDS011;32190;49.112;8.598;2022-10-24T22:23:34;0.55;;;0.30;;
32146;SDS011;32190;49.112;8.598;2022-10-24T22:29:26;1.90;;;0.47;;
32146;SDS011;32190;49.112;8.598;2022-10-24T22:35:16;0.63;;;0.20;;
32146;SDS011;32190;49.112;8.598;2022-10-24T22:41:10;1.75;;;0.20;;
32146;SDS011;32190;49.112;8.598;2022-10-24T22:47:07;0.20;;;0.20;;
32146;SDS011;32190;49.112;8.598;2022-10-24T22:59:16;0.20;;;0.20;;
32146;SDS011;32190;49.112;8.598;2022-10-24T23:05:13;0.43;;;0.43;;
32146;SDS011;32190;49.112;8.598;2022-10-24T23:11:17;0.10;;;0.10;;
32146;SDS011;32190;49.112;8.598;2022-10-24T23:17:10;0.10;;;0.10;;
32146;SDS011;32190;49.112;8.598;2022-10-24T23:23:03;4.18;;;0.30;;
32146;SDS011;32190;49.112;8.598;2022-10-24T23:35:07;0.20;;;0.20;;
32146;SDS011;32190;49.112;8.598;2022-10-24T23:40:58;0.30;;;0.30;;
32146;SDS011;32190;49.112;8.598;2022-10-24T23:47:37;1.33;;;0.17;;
32146;SDS011;32190;49.112;8.598;2022-10-24T23:53:22;1.08;;;0.20;;
32146;SDS011;32190;49.112;8.598;2022-10-24T23:59:13;1.35;;;0.20;;
